Time;durP1;ratioP1;P1;durP2;ratioP2;P2;SDS_P1;SDS_P2;PMS_P1;PMS_P2;Temp;Humidity;BMP_temperature;BMP_pressure;BME280_temperature;BME280_humidity;BME280_pressure;Samples;Min_cycle;Max_cycle;Signal;HPM_P1;HPM_P2
2021/12/25 00:00:58;;;;;;;3.80;2.60;;;6.80;99.90;;;;;;4968960;28;20039;-80
2021/12/25 00:03:25;;;;;;;8.43;2.40;;;6.80;99.90;;;;;;4969589;28;20031;-74
2021/12/25 00:05:54;;;;;;;4.43;2.10;;;6.80;99.90;;;;;;4971517;28;20027;-74
2021/12/25 00:08:25;;;;;;;4.93;2.40;;;6.70;99.90;;;;;;5038071;28;20100;-78
2021/12/25 00:10:51;;;;;;;3.13;1.90;;;6.80;99.90;;;;;;4969431;28;20356;-79
2021/12/25 00:13:20;;;;;;;2.93;2.20;;;6.70;99.90;;;;;;4970186;28;20390;-74
2021/12/25 00:15:46;;;;;;;4.80;2.17;;;6.70;99.90;;;;;;4971222;28;20197;-74
2021/12/25 00:18:12;;;;;;;4.10;2.30;;;6.70;99.90;;;;;;5037469;28;20027;-74
2021/12/25 00:20:38;;;;;;;4.40;2.43;;;6.70;99.90;;;;;;4971089;28;20027;-74
2021/12/25 00:23:06;;;;;;;3.70;2.20;;;6.70;99.90;;;;;;4970993;28;20053;-74
2021/12/25 00:25:41;;;;;;;3.00;2.30;;;6.70;99.90;;;;;;4970715;28;20383;-74
2021/12/25 00:36:18;;;;;;;2.97;1.87;;;6.80;99.90;;;;;;4970635;28;20027;-75
2021/12/25 00:38:45;;;;;;;4.50;2.00;;;6.80;99.90;;;;;;4970319;28;20018;-74
2021/12/25 00:41:12;;;;;;;3.33;2.13;;;6.80;99.90;;;;;;4970421;28;20027;-74
2021/12/25 00:43:38;;;;;;;4.13;1.90;;;6.70;99.90;;;;;;4970571;28;20387;-74
2021/12/25 00:46:04;;;;;;;3.97;2.10;;;6.70;99.90;;;;;;4970186;28;20043;-74
2021/12/25 00:48:30;;;;;;;3.63;2.30;;;6.70;99.90;;;;;;4970342;28;20027;-74
2021/12/25 00:50:55;;;;;;;9.30;2.40;;;6.70;99.90;;;;;;4970111;28;20031;-75
2021/12/25 00:53:21;;;;;;;4.07;2.37;;;6.60;99.90;;;;;;4969933;28;20035;-75
2021/12/25 00:55:48;;;;;;;3.77;2.10;;;6.60;99.90;;;;;;4970005;28;20023;-75
2021/12/25 00:58:14;;;;;;;3.37;2.17;;;6.50;99.90;;;;;;4970081;28;20019;-74
2021/12/25 01:00:40;;;;;;;4.03;2.20;;;6.50;99.90;;;;;;4969603;28;20026;-74
2021/12/25 01:03:08;;;;;;;6.13;2.50;;;6.50;99.90;;;;;;5036891;28;20039;-75
2021/12/25 01:05:34;;;;;;;5.33;2.70;;;6.50;99.90;;;;;;4970404;28;20424;-75
2021/12/25 01:08:00;;;;;;;3.00;2.20;;;6.40;99.90;;;;;;4970253;28;20030;-74
2021/12/25 01:10:26;;;;;;;4.40;2.70;;;6.40;99.90;;;;;;4969846;28;20031;-75
2021/12/25 01:13:21;;;;;;;5.00;2.00;;;6.40;99.90;;;;;;4970057;28;20022;-75
2021/12/25 01:26:42;;;;;;;5.57;2.63;;;6.20;99.90;;;;;;4970004;28;20100;-75
2021/12/25 01:32:21;;;;;;;3.47;2.40;;;6.20;99.90;;;;;;4969495;28;20033;-75
2021/12/25 01:37:07;;;;;;;3.53;2.30;;;6.10;99.90;;;;;;4969654;28;20134;-75
2021/12/25 01:47:50;;;;;;;5.23;3.03;;;6.00;99.90;;;;;;4969262;28;20391;-75
2021/12/25 01:50:19;;;;;;;3.90;2.80;;;6.00;99.90;;;;;;4969274;28;20077;-75
2021/12/25 01:52:45;;;;;;;4.17;2.80;;;5.90;99.90;;;;;;4971540;28;20047;-74
2021/12/25 01:55:17;;;;;;;6.80;3.30;;;5.90;99.90;;;;;;4972611;28;20110;-75
2021/12/25 01:57:43;;;;;;;4.30;2.70;;;5.90;99.90;;;;;;4972757;28;20453;-77
2021/12/25 02:00:32;;;;;;;4.80;3.00;;;5.90;99.90;;;;;;4972719;28;20118;-76
2021/12/25 02:02:59;;;;;;;4.13;2.83;;;5.90;99.90;;;;;;4973091;28;20088;-77
2021/12/25 02:05:25;;;;;;;3.90;3.00;;;5.90;99.90;;;;;;5040317;28;20027;-76
2021/12/25 02:07:50;;;;;;;4.80;2.90;;;5.90;99.90;;;;;;4973159;28;20057;-76
2021/12/25 02:10:20;;;;;;;5.57;3.10;;;5.90;99.90;;;;;;4972972;28;20449;-77
2021/12/25 02:12:46;;;;;;;7.63;2.80;;;5.90;99.90;;;;;;4973028;28;20054;-77
2021/12/25 02:15:18;;;;;;;4.60;2.90;;;5.90;99.90;;;;;;4972513;28;20057;-77
2021/12/25 02:20:36;;;;;;;4.30;2.83;;;5.90;99.90;;;;;;4973159;28;20061;-77
2021/12/25 02:23:09;;;;;;;4.47;2.40;;;6.00;99.90;;;;;;4973248;28;20118;-77
2021/12/25 02:25:35;;;;;;;5.37;2.37;;;6.00;99.90;;;;;;4972917;28;20110;-77
2021/12/25 02:28:04;;;;;;;3.97;2.37;;;6.00;99.90;;;;;;4972771;28;20037;-77
2021/12/25 02:30:30;;;;;;;3.57;2.37;;;6.00;99.90;;;;;;4972597;28;20042;-77
2021/12/25 02:32:58;;;;;;;4.67;2.50;;;6.00;99.90;;;;;;4972889;28;20027;-77
2021/12/25 02:35:24;;;;;;;3.43;2.57;;;6.00;99.90;;;;;;4972505;28;20030;-77
2021/12/25 02:37:50;;;;;;;4.53;2.10;;;6.00;99.90;;;;;;5039406;28;20050;-77
2021/12/25 02:40:16;;;;;;;4.97;2.60;;;6.00;99.90;;;;;;4972810;28;20026;-77
2021/12/25 02:42:42;;;;;;;4.10;2.43;;;5.90;99.90;;;;;;4972605;28;20109;-77
2021/12/25 02:45:15;;;;;;;4.10;2.70;;;5.90;99.90;;;;;;4972117;28;20027;-80
2021/12/25 02:47:43;;;;;;;6.23;2.80;;;5.90;99.90;;;;;;4971806;28;20038;-80
2021/12/25 02:50:09;;;;;;;5.70;2.70;;;5.90;99.90;;;;;;4970888;28;20027;-80
2021/12/25 02:52:35;;;;;;;3.10;2.60;;;5.90;99.90;;;;;;4971779;28;20038;-80
2021/12/25 02:55:01;;;;;;;3.87;2.43;;;5.80;99.90;;;;;;4971384;28;20023;-80
2021/12/25 02:57:26;;;;;;;4.77;3.10;;;5.90;99.90;;;;;;4971222;28;20041;-80
2021/12/25 02:59:52;;;;;;;3.43;2.70;;;5.80;99.90;;;;;;4971409;28;20031;-80
2021/12/25 03:02:17;;;;;;;6.40;3.10;;;5.80;99.90;;;;;;4971081;28;20447;-80
2021/12/25 03:04:46;;;;;;;6.20;2.90;;;5.80;99.90;;;;;;4969778;28;20080;-80
2021/12/25 03:07:13;;;;;;;3.40;2.70;;;5.80;99.90;;;;;;4971094;28;20034;-80
2021/12/25 03:09:40;;;;;;;3.23;2.40;;;5.80;99.90;;;;;;4970857;28;20118;-80
2021/12/25 03:12:09;;;;;;;4.43;2.67;;;5.80;99.90;;;;;;4970961;28;20030;-80
2021/12/25 03:14:39;;;;;;;3.67;2.57;;;5.90;99.90;;;;;;4970846;28;20034;-80
2021/12/25 03:17:06;;;;;;;4.33;2.20;;;5.90;99.90;;;;;;5036948;28;20141;-80
2021/12/25 03:19:33;;;;;;;4.60;2.33;;;5.90;99.90;;;;;;4970989;28;20027;-80
2021/12/25 03:22:04;;;;;;;3.27;2.00;;;5.90;99.90;;;;;;4970758;28;20034;-80
2021/12/25 03:24:29;;;;;;;3.27;2.03;;;6.00;99.90;;;;;;4971018;28;20429;-80
2021/12/25 03:26:56;;;;;;;3.20;2.20;;;6.00;99.90;;;;;;4970619;28;20040;-80
2021/12/25 03:29:26;;;;;;;4.20;2.30;;;6.00;99.90;;;;;;4970582;28;20084;-80
2021/12/25 03:31:52;;;;;;;3.10;2.27;;;6.00;99.90;;;;;;4970367;28;20058;-80
2021/12/25 03:34:18;;;;;;;3.70;2.10;;;6.00;99.90;;;;;;4970397;28;20026;-80
2021/12/25 03:36:44;;;;;;;4.47;2.30;;;6.10;99.90;;;;;;4970303;28;20051;-80
2021/12/25 03:39:10;;;;;;;3.57;2.17;;;6.10;99.90;;;;;;4970253;28;20058;-80
2021/12/25 03:41:35;;;;;;;4.00;2.00;;;6.10;99.90;;;;;;4970082;28;20110;-80
2021/12/25 03:44:01;;;;;;;3.73;1.90;;;6.10;99.90;;;;;;4970434;28;20058;-80
2021/12/25 03:46:29;;;;;;;2.87;1.63;;;6.10;99.90;;;;;;4970599;28;20082;-80
2021/12/25 03:59:36;;;;;;;4.80;1.97;;;6.10;99.90;;;;;;4970098;28;20540;-80
2021/12/25 04:02:07;;;;;;;3.17;1.77;;;6.10;99.90;;;;;;5036396;28;20039;-80
2021/12/25 04:04:36;;;;;;;4.40;2.30;;;6.10;99.90;;;;;;4970082;28;20039;-80
2021/12/25 04:09:32;;;;;;;3.50;2.17;;;6.10;99.90;;;;;;4969806;28;20126;-80
2021/12/25 04:12:02;;;;;;;3.00;1.87;;;6.10;99.90;;;;;;4969558;28;20023;-80
2021/12/25 04:14:27;;;;;;;3.27;2.00;;;6.10;99.90;;;;;;5036089;28;20038;-80
2021/12/25 04:16:53;;;;;;;2.50;1.80;;;6.10;99.90;;;;;;4969443;28;20055;-80
2021/12/25 04:19:21;;;;;;;2.87;2.00;;;6.10;99.90;;;;;;4969514;28;20106;-80
2021/12/25 04:24:22;;;;;;;3.53;1.90;;;6.00;99.90;;;;;;4969673;28;20069;-80
2021/12/25 04:26:49;;;;;;;3.37;2.30;;;6.00;99.90;;;;;;4969487;28;20482;-80
2021/12/25 05:02:06;;;;;;;2.53;1.90;;;5.90;99.90;;;;;;4968682;28;20038;-80
2021/12/25 05:04:38;;;;;;;3.00;1.90;;;5.90;99.90;;;;;;4968192;28;20026;-80
2021/12/25 05:07:05;;;;;;;3.13;2.00;;;5.90;99.90;;;;;;4968139;28;20072;-80
2021/12/25 05:09:31;;;;;;;3.10;1.80;;;5.90;99.90;;;;;;4967799;28;20114;-80
2021/12/25 05:11:59;;;;;;;2.30;1.90;;;5.90;99.90;;;;;;4968111;28;20038;-80
2021/12/25 05:14:25;;;;;;;3.20;1.87;;;5.80;99.90;;;;;;4967817;28;20055;-80
2021/12/25 05:16:52;;;;;;;2.57;1.70;;;5.80;99.90;;;;;;4967801;28;20086;-80
2021/12/25 05:19:18;;;;;;;3.47;2.00;;;5.80;99.90;;;;;;4967778;28;20015;-80
2021/12/25 05:21:44;;;;;;;4.60;1.83;;;5.80;99.90;;;;;;4968426;28;20017;-80
2021/12/25 05:24:09;;;;;;;3.60;2.03;;;5.70;99.90;;;;;;4968334;28;20551;-81
2021/12/25 05:26:35;;;;;;;3.40;1.80;;;5.70;99.90;;;;;;4968379;28;20483;-80
2021/12/25 05:29:02;;;;;;;3.27;1.80;;;5.70;99.90;;;;;;5038919;28;20023;-80
2021/12/25 05:31:30;;;;;;;3.27;1.90;;;5.70;99.90;;;;;;4971528;28;20019;-80
2021/12/25 05:33:56;;;;;;;2.53;2.00;;;5.70;99.90;;;;;;4971627;28;20030;-80
2021/12/25 05:36:24;;;;;;;4.10;1.70;;;5.70;99.90;;;;;;4971651;28;20057;-80
2021/12/25 05:38:50;;;;;;;2.67;1.70;;;5.70;99.90;;;;;;4971336;28;20019;-80
2021/12/25 05:41:15;;;;;;;3.70;2.00;;;5.70;99.90;;;;;;4971635;28;20541;-80
2021/12/25 05:43:41;;;;;;;2.97;2.10;;;5.70;99.90;;;;;;4971919;28;20027;-80
2021/12/25 05:46:07;;;;;;;3.13;1.87;;;5.70;99.90;;;;;;4971470;28;20023;-80
2021/12/25 05:48:35;;;;;;;4.33;2.47;;;5.70;99.90;;;;;;4971427;28;20027;-80
2021/12/25 05:51:04;;;;;;;2.37;1.77;;;5.70;99.90;;;;;;4971304;28;20026;-80
2021/12/25 05:53:30;;;;;;;3.60;2.40;;;5.60;99.90;;;;;;4971215;28;20023;-80
2021/12/25 05:55:56;;;;;;;3.93;2.30;;;5.70;99.90;;;;;;5038281;28;20040;-80
2021/12/25 05:58:21;;;;;;;3.17;2.40;;;5.60;99.90;;;;;;4972038;28;20022;-74
2021/12/25 06:00:47;;;;;;;2.97;2.30;;;5.60;99.90;;;;;;5039275;28;20417;-75
2021/12/25 06:03:12;;;;;;;3.60;2.60;;;5.50;99.90;;;;;;5038890;28;20050;-74
2021/12/25 06:05:39;;;;;;;3.10;2.20;;;5.50;99.90;;;;;;4972607;28;20027;-74
2021/12/25 06:08:05;;;;;;;4.23;2.60;;;5.50;99.90;;;;;;4972348;28;20023;-75
2021/12/25 06:10:31;;;;;;;3.17;2.30;;;5.50;99.90;;;;;;4972574;28;20383;-75
2021/12/25 06:12:59;;;;;;;3.17;2.40;;;5.40;99.90;;;;;;4972662;28;20030;-75
2021/12/25 06:15:26;;;;;;;3.53;2.70;;;5.40;99.90;;;;;;5039257;28;20180;-74
2021/12/25 06:17:52;;;;;;;3.97;2.93;;;5.40;99.90;;;;;;4972627;28;20023;-74
2021/12/25 06:20:19;;;;;;;4.50;2.70;;;5.40;99.90;;;;;;4972311;28;20026;-74
2021/12/25 06:22:44;;;;;;;4.93;2.83;;;5.40;99.90;;;;;;4972392;28;20031;-74
2021/12/25 06:25:10;;;;;;;3.77;2.70;;;5.40;99.90;;;;;;4972545;28;20110;-74
2021/12/25 06:27:36;;;;;;;3.83;2.60;;;5.40;99.90;;;;;;4972153;28;20105;-75
2021/12/25 06:30:06;;;;;;;4.27;2.90;;;5.40;99.90;;;;;;4972101;28;20148;-74
2021/12/25 06:32:31;;;;;;;4.17;2.40;;;5.40;99.90;;;;;;4972075;28;20037;-74
2021/12/25 06:35:00;;;;;;;3.40;2.60;;;5.40;99.90;;;;;;4972366;28;20018;-75
2021/12/25 06:37:26;;;;;;;2.80;2.10;;;5.40;99.90;;;;;;4971758;28;20114;-75
2021/12/25 06:39:52;;;;;;;3.80;2.00;;;5.50;99.90;;;;;;4972216;28;20023;-74
2021/12/25 06:42:17;;;;;;;3.63;1.90;;;5.50;99.90;;;;;;4971919;28;20409;-75
2021/12/25 06:44:43;;;;;;;2.43;1.80;;;5.50;99.90;;;;;;4972109;28;20475;-75
2021/12/25 06:47:09;;;;;;;3.40;1.67;;;5.50;99.90;;;;;;4971437;28;20035;-74
2021/12/25 06:49:35;;;;;;;3.07;1.70;;;5.50;99.90;;;;;;4971574;28;20027;-75
2021/12/25 06:52:01;;;;;;;3.03;1.40;;;5.50;99.90;;;;;;4971389;28;20491;-75
2021/12/25 06:54:26;;;;;;;2.10;1.63;;;5.60;99.90;;;;;;5038184;28;20027;-75
2021/12/25 06:56:53;;;;;;;2.73;1.73;;;5.60;99.90;;;;;;4971406;28;20038;-75
2021/12/25 06:59:21;;;;;;;3.40;1.73;;;5.60;99.90;;;;;;4971340;28;20054;-75
2021/12/25 07:01:47;;;;;;;2.60;1.60;;;5.60;99.90;;;;;;4971058;28;20076;-74
2021/12/25 07:04:12;;;;;;;2.93;1.87;;;5.60;99.90;;;;;;4971589;28;20027;-75
2021/12/25 07:06:39;;;;;;;3.30;2.20;;;5.60;99.90;;;;;;4971500;28;20019;-75
2021/12/25 07:09:07;;;;;;;2.77;1.60;;;5.60;99.90;;;;;;4971777;28;20022;-74
2021/12/25 07:11:33;;;;;;;2.40;1.70;;;5.60;99.90;;;;;;4971093;28;20038;-74
2021/12/25 07:14:02;;;;;;;2.93;2.00;;;5.70;99.90;;;;;;4971072;28;20022;-74
2021/12/25 07:16:28;;;;;;;2.60;1.73;;;5.70;99.90;;;;;;4970663;28;20046;-75
2021/12/25 07:18:53;;;;;;;2.87;2.00;;;5.70;99.90;;;;;;4970357;28;20019;-74
2021/12/25 07:21:20;;;;;;;2.23;1.70;;;5.70;99.90;;;;;;4973260;28;20476;-74
2021/12/25 07:23:46;;;;;;;3.93;2.03;;;5.70;99.90;;;;;;4966310;28;20078;-74
2021/12/25 07:26:12;;;;;;;4.27;2.10;;;5.70;99.90;;;;;;4958572;28;20409;-75
2021/12/25 07:28:37;;;;;;;2.57;1.70;;;5.70;99.90;;;;;;4959875;28;20042;-74
2021/12/25 07:31:04;;;;;;;3.73;2.10;;;5.80;99.90;;;;;;4959491;28;20024;-74
2021/12/25 07:33:31;;;;;;;2.37;2.00;;;5.80;99.90;;;;;;4957286;28;20068;-74
2021/12/25 07:35:57;;;;;;;4.13;2.20;;;5.90;99.90;;;;;;4958388;28;20018;-74
2021/12/25 07:38:23;;;;;;;4.47;2.20;;;6.00;99.90;;;;;;4959835;28;20019;-74
2021/12/25 07:40:50;;;;;;;3.63;2.63;;;6.00;99.90;;;;;;4960112;28;20503;-75
2021/12/25 07:43:17;;;;;;;3.40;2.10;;;6.00;99.90;;;;;;4961958;28;20034;-75
2021/12/25 07:45:46;;;;;;;15.30;10.83;;;6.10;99.90;;;;;;4964139;28;20029;-74
2021/12/25 07:48:14;;;;;;;25.03;17.73;;;6.10;99.90;;;;;;4961086;28;20019;-74
2021/12/25 07:50:41;;;;;;;10.93;6.67;;;6.10;99.90;;;;;;4953785;28;20390;-74
2021/12/25 07:53:07;;;;;;;6.73;4.70;;;6.10;99.90;;;;;;5022044;28;20379;-74
2021/12/25 07:55:33;;;;;;;11.87;6.70;;;6.10;99.90;;;;;;4961484;28;20507;-74
2021/12/25 07:58:00;;;;;;;9.03;5.07;;;6.10;99.90;;;;;;4959392;28;20023;-74
2021/12/25 08:00:25;;;;;;;7.67;4.60;;;6.10;99.90;;;;;;4960485;28;20478;-79
2021/12/25 08:02:51;;;;;;;5.17;2.63;;;6.20;99.90;;;;;;4958528;28;20084;-79
2021/12/25 08:05:17;;;;;;;3.43;2.50;;;6.20;99.90;;;;;;5099922;23;20107;-71
2021/12/25 08:07:43;;;;;;;4.60;3.20;;;6.20;99.90;;;;;;5038312;28;20040;-72
2021/12/25 08:10:17;;;;;;;3.90;2.90;;;6.20;99.90;;;;;;5040426;28;20051;-72
2021/12/25 08:12:54;;;;;;;3.75;2.83;;;6.20;99.90;;;;;;5041554;28;20017;-72
2021/12/25 08:15:25;;;;;;;6.30;3.87;;;6.20;99.90;;;;;;5039273;28;20025;-72
2021/12/25 08:17:51;;;;;;;7.30;4.30;;;6.20;99.90;;;;;;5040668;28;20034;-72
2021/12/25 08:20:17;;;;;;;8.37;5.37;;;6.30;99.90;;;;;;5018523;28;20037;-72
2021/12/25 08:22:43;;;;;;;6.13;4.67;;;6.20;99.90;;;;;;5037355;28;20117;-72
2021/12/25 08:25:10;;;;;;;8.50;5.47;;;6.30;99.90;;;;;;5040492;28;20201;-72
2021/12/25 08:27:37;;;;;;;8.47;6.40;;;6.30;99.90;;;;;;5043342;28;20033;-76
2021/12/25 08:30:07;;;;;;;7.83;4.93;;;6.30;99.90;;;;;;5039420;28;20120;-73
2021/12/25 08:32:33;;;;;;;3.87;2.90;;;6.40;99.90;;;;;;5036548;28;20021;-73
2021/12/25 08:34:59;;;;;;;11.67;5.53;;;6.40;99.90;;;;;;5043829;28;20106;-74
2021/12/25 08:37:26;;;;;;;3.60;2.80;;;6.50;99.90;;;;;;5039350;28;20017;-74
2021/12/25 08:39:52;;;;;;;4.40;3.30;;;6.50;99.90;;;;;;5037815;28;20025;-73
2021/12/25 08:42:18;;;;;;;4.50;2.73;;;6.60;99.90;;;;;;5042194;28;20068;-75
2021/12/25 08:45:05;;;;;;;3.80;2.43;;;6.60;99.90;;;;;;5034817;28;20060;-74
2021/12/25 08:47:37;;;;;;;3.17;2.07;;;6.70;99.90;;;;;;5040186;28;20021;-73
2021/12/25 08:50:06;;;;;;;3.70;1.77;;;6.70;99.90;;;;;;5021676;28;20033;-73
2021/12/25 08:52:32;;;;;;;3.47;1.70;;;6.90;99.90;;;;;;5040119;28;20029;-72
2021/12/25 08:54:58;;;;;;;3.70;1.63;;;7.00;99.90;;;;;;5040242;28;20021;-75
2021/12/25 08:57:23;;;;;;;2.83;1.60;;;7.10;99.90;;;;;;5040789;28;20032;-71
2021/12/25 08:59:54;;;;;;;2.30;1.57;;;7.30;99.90;;;;;;5037352;28;20033;-72
2021/12/25 09:02:20;;;;;;;2.43;1.90;;;7.40;99.90;;;;;;5044152;28;20026;-72
2021/12/25 09:04:48;;;;;;;2.80;1.43;;;7.50;99.90;;;;;;5044144;28;20037;-71
2021/12/25 09:07:14;;;;;;;4.13;1.60;;;7.70;99.90;;;;;;5044929;28;20545;-71
2021/12/25 09:09:40;;;;;;;2.73;1.60;;;7.80;99.90;;;;;;5043260;28;20076;-72
2021/12/25 09:12:08;;;;;;;2.53;1.77;;;7.90;99.90;;;;;;5045547;28;20033;-72
2021/12/25 09:14:34;;;;;;;2.50;1.60;;;8.20;99.90;;;;;;5043876;28;20485;-72
2021/12/25 09:16:59;;;;;;;3.90;1.70;;;8.30;99.90;;;;;;5043166;28;20026;-72
2021/12/25 09:19:25;;;;;;;2.70;1.60;;;8.40;99.90;;;;;;5043468;28;20100;-72
2021/12/25 09:21:51;;;;;;;4.13;1.80;;;8.50;99.90;;;;;;5051745;28;20044;-72
2021/12/25 09:24:16;;;;;;;2.00;1.60;;;8.70;99.90;;;;;;5046615;28;20075;-72
2021/12/25 09:26:43;;;;;;;2.93;1.70;;;8.90;99.90;;;;;;5052101;28;20327;-71
2021/12/25 09:29:08;;;;;;;2.23;1.70;;;9.00;99.90;;;;;;5044911;28;20033;-73
2021/12/25 09:31:34;;;;;;;3.90;1.90;;;9.10;99.90;;;;;;5046300;28;20028;-66
2021/12/25 09:34:00;;;;;;;3.40;1.67;;;9.00;99.90;;;;;;5054582;28;20519;-73
2021/12/25 09:36:27;;;;;;;2.07;1.57;;;9.10;99.90;;;;;;5053556;28;20469;-73
2021/12/25 09:38:53;;;;;;;3.77;2.00;;;9.20;99.90;;;;;;5052558;28;20116;-73
2021/12/25 09:41:19;;;;;;;2.67;1.80;;;9.10;99.90;;;;;;5051078;28;20155;-73
2021/12/25 09:43:47;;;;;;;2.27;1.70;;;9.10;99.90;;;;;;5046363;28;20142;-74
2021/12/25 09:46:15;;;;;;;2.20;1.40;;;9.20;99.90;;;;;;5014090;28;20037;-73
2021/12/25 09:48:41;;;;;;;2.67;1.40;;;9.20;99.90;;;;;;5033788;28;20037;-73
2021/12/25 09:51:08;;;;;;;4.47;1.87;;;9.30;99.90;;;;;;5047919;28;20043;-74
2021/12/25 09:53:34;;;;;;;2.70;1.60;;;9.40;99.90;;;;;;5063990;28;20033;-74
2021/12/25 09:56:01;;;;;;;2.10;1.50;;;9.40;99.90;;;;;;5072264;28;20031;-74
2021/12/25 09:58:27;;;;;;;2.00;1.57;;;9.30;99.90;;;;;;5072427;28;20103;-74
2021/12/25 10:00:53;;;;;;;2.50;1.80;;;9.30;99.90;;;;;;5071770;28;20179;-74
2021/12/25 10:03:19;;;;;;;2.73;1.50;;;9.30;99.90;;;;;;5072193;28;20024;-73
2021/12/25 10:05:48;;;;;;;2.60;1.50;;;9.30;99.90;;;;;;5072525;28;20171;-75
2021/12/25 10:08:17;;;;;;;2.77;1.50;;;9.20;99.90;;;;;;5072662;28;20029;-74
2021/12/25 10:10:56;;;;;;;3.30;1.50;;;9.30;99.90;;;;;;5073358;28;20028;-74
2021/12/25 10:13:38;;;;;;;2.20;1.53;;;9.30;99.90;;;;;;5073249;28;20072;-81
2021/12/25 10:16:24;;;;;;;1.53;1.13;;;9.40;99.90;;;;;;5073770;28;20111;-79
2021/12/25 10:18:51;;;;;;;1.60;1.23;;;9.40;99.90;;;;;;5072293;28;20023;-73
2021/12/25 10:21:28;;;;;;;2.40;1.50;;;9.40;99.90;;;;;;5060827;28;20039;-74
2021/12/25 10:24:12;;;;;;;2.00;1.47;;;9.60;99.90;;;;;;5047786;28;20068;-73
2021/12/25 10:26:44;;;;;;;2.80;1.50;;;9.60;99.90;;;;;;5048630;28;20122;-73
2021/12/25 10:29:22;;;;;;;2.20;1.40;;;9.50;99.90;;;;;;5030362;28;20395;-73
2021/12/25 10:31:53;;;;;;;1.80;1.20;;;9.50;99.90;;;;;;5048402;28;20027;-73
2021/12/25 10:34:22;;;;;;;1.73;1.33;;;9.70;99.90;;;;;;5043322;28;20446;-73
2021/12/25 10:36:48;;;;;;;1.70;1.30;;;9.70;99.90;;;;;;5038271;28;20112;-74
2021/12/25 10:39:18;;;;;;;2.00;1.30;;;9.70;99.90;;;;;;5033390;28;20016;-74
2021/12/25 10:41:53;;;;;;;2.50;1.47;;;9.70;99.90;;;;;;5042373;28;20439;-74
2021/12/25 10:44:25;;;;;;;2.20;1.50;;;9.70;99.90;;;;;;5037747;28;20499;-73
2021/12/25 10:46:54;;;;;;;1.87;1.10;;;9.70;99.90;;;;;;5043276;28;20478;-73
2021/12/25 10:49:21;;;;;;;2.23;1.30;;;9.70;99.90;;;;;;5036861;28;20021;-73
2021/12/25 10:51:47;;;;;;;1.70;1.13;;;9.70;99.90;;;;;;5041968;28;20033;-73
2021/12/25 10:54:15;;;;;;;1.40;1.30;;;9.60;99.90;;;;;;5047463;28;20087;-73
2021/12/25 10:56:43;;;;;;;2.20;1.30;;;9.60;99.90;;;;;;5048176;28;20127;-74
2021/12/25 10:59:14;;;;;;;2.30;1.17;;;9.70;99.90;;;;;;5035221;28;20060;-73
2021/12/25 11:01:49;;;;;;;1.87;1.30;;;9.70;99.90;;;;;;5027815;28;20059;-73
2021/12/25 11:04:44;;;;;;;2.00;1.35;;;9.60;99.90;;;;;;5037314;28;20044;-74
2021/12/25 11:07:14;;;;;;;1.63;1.17;;;9.60;99.90;;;;;;5003505;28;20119;-74
2021/12/25 11:09:40;;;;;;;2.67;1.23;;;9.60;99.90;;;;;;5020528;23;20474;-73
2021/12/25 11:12:19;;;;;;;1.50;1.10;;;9.60;99.90;;;;;;4977842;28;20103;-73
2021/12/25 11:14:45;;;;;;;2.90;1.20;;;9.50;99.90;;;;;;4975268;28;20132;-73
2021/12/25 11:17:41;;;;;;;3.80;1.17;;;9.60;99.90;;;;;;4983343;28;20498;-73
2021/12/25 11:20:16;;;;;;;2.53;1.20;;;9.60;99.90;;;;;;4980091;28;20436;-73
2021/12/25 11:22:53;;;;;;;1.20;1.00;;;9.50;99.90;;;;;;4978971;28;20344;-73
2021/12/25 11:25:22;;;;;;;1.27;1.00;;;9.50;99.90;;;;;;4972433;28;20034;-73
2021/12/25 11:27:49;;;;;;;2.17;1.20;;;9.60;99.90;;;;;;4980670;28;20030;-73
2021/12/25 11:30:18;;;;;;;1.87;1.10;;;9.50;99.90;;;;;;4978985;28;20184;-73
2021/12/25 11:32:44;;;;;;;2.33;1.30;;;9.50;99.90;;;;;;4975164;28;20019;-73
2021/12/25 11:35:11;;;;;;;1.67;1.10;;;9.50;99.90;;;;;;4979451;28;20023;-73
2021/12/25 11:37:37;;;;;;;1.40;1.10;;;9.50;99.90;;;;;;4978364;28;20141;-73
2021/12/25 11:40:06;;;;;;;1.83;1.53;;;9.50;99.90;;;;;;4979715;28;20031;-73
2021/12/25 11:42:32;;;;;;;2.70;1.50;;;9.40;99.90;;;;;;4976989;28;20498;-73
2021/12/25 11:45:35;;;;;;;2.77;1.70;;;9.50;99.90;;;;;;5076648;28;20418;-72
2021/12/25 11:48:12;;;;;;;1.80;1.30;;;9.40;99.90;;;;;;5062690;28;20040;-73
2021/12/25 11:50:42;;;;;;;1.40;1.23;;;9.50;99.90;;;;;;5067235;28;20740;-72
2021/12/25 11:56:16;;;;;;;2.67;1.70;;;9.50;99.90;;;;;;5067228;28;20036;-73
2021/12/25 11:58:48;;;;;;;1.53;1.23;;;9.50;99.90;;;;;;5067302;28;20028;-73
2021/12/25 12:01:38;;;;;;;2.10;1.60;;;9.50;99.90;;;;;;5066948;28;20197;-73
2021/12/25 12:04:10;;;;;;;2.90;1.50;;;9.50;99.90;;;;;;5066859;28;20119;-72
2021/12/25 12:06:47;;;;;;;3.17;2.10;;;9.40;99.90;;;;;;5066769;28;20028;-73
2021/12/25 12:09:23;;;;;;;3.50;1.80;;;9.40;99.90;;;;;;5066596;28;20033;-73
2021/12/25 12:12:11;;;;;;;2.93;1.67;;;9.30;99.90;;;;;;5066409;28;20060;-72
2021/12/25 12:14:38;;;;;;;2.40;1.60;;;9.20;99.90;;;;;;5066205;28;20037;-73
2021/12/25 12:17:26;;;;;;;4.00;1.90;;;9.30;99.90;;;;;;5066469;28;20028;-73
2021/12/25 12:19:54;;;;;;;2.63;1.70;;;9.20;99.90;;;;;;5067058;28;20041;-73
2021/12/25 12:27:56;;;;;;;2.27;1.70;;;9.10;99.90;;;;;;5063524;28;20040;-73
2021/12/25 12:30:31;;;;;;;2.37;1.53;;;9.00;99.90;;;;;;5065126;28;20036;-73
2021/12/25 12:33:01;;;;;;;3.22;1.90;;;9.00;99.90;;;;;;5066352;28;20035;-73
2021/12/25 12:35:40;;;;;;;2.77;1.73;;;9.00;99.90;;;;;;5065893;28;20024;-72
2021/12/25 12:38:25;;;;;;;2.73;1.97;;;9.00;99.90;;;;;;5064600;28;20048;-73
2021/12/25 12:41:12;;;;;;;4.15;2.25;;;9.00;99.90;;;;;;5067103;28;20490;-72
2021/12/25 12:43:56;;;;;;;2.47;1.80;;;9.00;99.90;;;;;;5066062;28;20102;-72
2021/12/25 12:46:23;;;;;;;4.33;1.97;;;8.90;99.90;;;;;;5066521;28;20032;-73
2021/12/25 12:49:07;;;;;;;4.00;2.53;;;8.80;99.90;;;;;;5066110;28;20029;-72
2021/12/25 12:51:35;;;;;;;4.07;2.40;;;8.80;99.90;;;;;;5065835;28;20083;-73
2021/12/25 12:54:01;;;;;;;4.63;1.90;;;8.80;99.90;;;;;;5065813;28;20037;-72
2021/12/25 12:56:27;;;;;;;3.57;2.20;;;8.70;99.90;;;;;;5052779;28;20114;-72
2021/12/25 12:58:55;;;;;;;3.73;2.30;;;8.80;99.90;;;;;;5053507;28;20079;-72
2021/12/25 13:01:21;;;;;;;4.80;2.20;;;8.90;99.90;;;;;;5053151;28;20017;-72
2021/12/25 13:03:47;;;;;;;4.33;2.10;;;8.80;99.90;;;;;;5053635;28;20037;-72
2021/12/25 13:06:15;;;;;;;3.63;2.10;;;8.80;99.90;;;;;;5053242;28;20092;-72
2021/12/25 13:08:43;;;;;;;3.73;2.47;;;8.80;99.90;;;;;;5054451;28;20021;-72
2021/12/25 13:11:21;;;;;;;7.77;3.27;;;8.80;99.90;;;;;;5053606;28;20021;-72
2021/12/25 13:13:53;;;;;;;7.50;3.80;;;8.80;99.90;;;;;;5053728;28;20053;-72
2021/12/25 13:16:23;;;;;;;3.93;2.60;;;8.70;99.90;;;;;;5053948;28;20029;-72
2021/12/25 13:18:52;;;;;;;4.40;2.90;;;8.70;99.90;;;;;;5054409;28;20345;-72
2021/12/25 13:21:29;;;;;;;5.07;3.07;;;8.70;99.90;;;;;;5053649;28;20453;-72
2021/12/25 13:23:58;;;;;;;12.23;6.77;;;8.70;99.90;;;;;;5052524;28;20045;-71
2021/12/25 13:26:34;;;;;;;17.57;9.23;;;8.70;99.90;;;;;;5051981;28;20025;-72
2021/12/25 13:29:02;;;;;;;14.67;9.40;;;8.70;99.90;;;;;;5052441;28;20060;-75
2021/12/25 13:31:30;;;;;;;35.70;18.80;;;8.60;99.90;;;;;;5054101;28;20029;-74
2021/12/25 13:33:59;;;;;;;14.93;7.63;;;8.60;99.90;;;;;;5054043;28;20052;-74
2021/12/25 13:36:33;;;;;;;13.63;8.00;;;8.60;99.90;;;;;;5053887;28;20040;-74
2021/12/25 13:39:04;;;;;;;13.30;9.60;;;8.60;99.90;;;;;;5054219;28;20021;-73
2021/12/25 13:41:54;;;;;;;9.00;7.07;;;8.60;99.90;;;;;;5052473;28;20035;-74
2021/12/25 13:44:33;;;;;;;4.93;3.30;;;8.60;99.90;;;;;;5052155;28;20528;-73
2021/12/25 13:47:05;;;;;;;6.63;4.37;;;8.60;99.90;;;;;;5053722;28;20075;-74
2021/12/25 13:49:40;;;;;;;18.63;11.53;;;8.60;99.90;;;;;;5053746;28;20076;-73
2021/12/25 13:52:11;;;;;;;12.27;7.22;;;8.70;99.90;;;;;;5052403;28;20583;-74
2021/12/25 13:54:39;;;;;;;10.97;6.63;;;8.70;99.90;;;;;;5053720;28;20600;-74
2021/12/25 13:57:05;;;;;;;7.67;3.57;;;8.70;99.90;;;;;;5053411;28;20032;-73
2021/12/25 13:59:33;;;;;;;3.70;2.70;;;8.70;99.90;;;;;;5053679;28;20025;-73
2021/12/25 14:02:06;;;;;;;4.73;3.20;;;8.60;99.90;;;;;;5053837;28;20057;-73
2021/12/25 14:04:34;;;;;;;5.30;3.60;;;8.70;99.90;;;;;;5053520;28;20025;-73
2021/12/25 14:07:00;;;;;;;18.93;11.33;;;8.70;99.90;;;;;;5052891;28;20032;-73
2021/12/25 14:09:26;;;;;;;14.90;9.83;;;8.60;99.90;;;;;;5053527;28;20028;-73
2021/12/25 14:11:54;;;;;;;29.27;16.90;;;8.60;99.90;;;;;;5053562;28;20017;-73
2021/12/25 14:14:21;;;;;;;7.60;4.73;;;8.50;99.90;;;;;;5053647;28;20032;-73
2021/12/25 14:16:47;;;;;;;6.50;3.27;;;8.60;99.90;;;;;;5053545;28;20029;-73
2021/12/25 14:19:13;;;;;;;5.50;3.50;;;8.50;99.90;;;;;;5053563;28;20021;-73
2021/12/25 14:21:51;;;;;;;5.60;3.60;;;8.50;99.90;;;;;;5053590;28;20025;-73
2021/12/25 14:24:17;;;;;;;9.10;4.97;;;8.40;99.90;;;;;;5053171;28;20402;-73
2021/12/25 14:26:42;;;;;;;7.50;4.60;;;8.40;99.90;;;;;;5053055;28;20025;-72
2021/12/25 14:29:27;;;;;;;7.40;4.40;;;8.30;99.90;;;;;;5053184;28;20033;-73
2021/12/25 14:31:53;;;;;;;5.80;4.10;;;8.20;99.90;;;;;;5053420;28;20051;-71
2021/12/25 14:34:19;;;;;;;7.83;4.00;;;8.20;99.90;;;;;;5052319;28;20049;-71
2021/12/25 14:36:46;;;;;;;7.70;4.57;;;8.00;99.90;;;;;;5052119;28;20487;-71